Time;durP1;ratioP1;P1;durP2;ratioP2;P2;SDS_P1;SDS_P2;PMS_P1;PMS_P2;Temp;Humidity;BMP_temperature;BMP_pressure;BME280_temperature;BME280_humidity;BME280_pressure;Samples;Min_cycle;Max_cycle;Signal;HPM_P1;HPM_P2
2023/07/30 00:01:46;;;;;;;2.77;2.40;;;;;;;;;;4993757;28;20217;-72
2023/07/30 00:04:50;;;;;;;2.60;2.30;;;;;;;;;;5016775;28;20204;-72
2023/07/30 00:07:54;;;;;;;3.63;2.27;;;;;;;;;;4993708;28;20173;-72
2023/07/30 00:10:58;;;;;;;2.63;2.20;;;;;;;;;;5004861;28;20569;-72
2023/07/30 00:14:03;;;;;;;2.80;2.30;;;;;;;;;;5017097;28;20186;-72
2023/07/30 00:17:07;;;;;;;2.47;2.10;;;;;;;;;;5016872;28;20213;-72
2023/07/30 00:20:12;;;;;;;2.63;2.13;;;;;;;;;;5016819;28;20178;-72
2023/07/30 00:23:16;;;;;;;2.37;2.17;;;;;;;;;;5004456;28;20190;-72
2023/07/30 00:26:20;;;;;;;2.60;2.20;;;;;;;;;;4993443;28;20174;-72
2023/07/30 00:29:24;;;;;;;3.47;2.43;;;;;;;;;;5016369;28;20228;-72
2023/07/30 00:32:28;;;;;;;3.77;2.40;;;;;;;;;;4981892;28;20213;-72
2023/07/30 00:35:33;;;;;;;3.43;2.30;;;;;;;;;;5004333;28;20181;-72
2023/07/30 00:38:37;;;;;;;2.70;2.20;;;;;;;;;;5004409;28;20514;-72
2023/07/30 00:41:40;;;;;;;4.10;2.37;;;;;;;;;;5004226;28;20213;-72
2023/07/30 00:44:44;;;;;;;4.57;2.20;;;;;;;;;;5016449;28;20518;-72
2023/07/30 00:47:49;;;;;;;6.07;2.10;;;;;;;;;;5004285;28;20181;-72
2023/07/30 00:50:53;;;;;;;2.77;2.40;;;;;;;;;;5016445;28;20581;-72
2023/07/30 00:53:58;;;;;;;3.50;2.20;;;;;;;;;;5004403;28;20178;-72
2023/07/30 00:57:02;;;;;;;3.63;2.20;;;;;;;;;;5003780;28;20557;-72
2023/07/30 01:00:08;;;;;;;2.60;2.30;;;;;;;;;;5003765;28;20197;-72
2023/07/30 01:03:13;;;;;;;3.57;2.63;;;;;;;;;;5003891;28;20197;-72
2023/07/30 01:06:18;;;;;;;4.00;2.30;;;;;;;;;;5003816;28;20177;-72
2023/07/30 01:09:22;;;;;;;2.70;2.03;;;;;;;;;;5016008;28;20624;-73
2023/07/30 01:12:30;;;;;;;2.50;2.03;;;;;;;;;;4992808;28;20217;-72
2023/07/30 01:15:34;;;;;;;3.10;2.23;;;;;;;;;;5003444;28;20197;-72
2023/07/30 01:18:38;;;;;;;4.13;2.40;;;;;;;;;;5003719;28;20174;-71
2023/07/30 01:21:42;;;;;;;2.57;2.37;;;;;;;;;;5003292;28;20213;-71
2023/07/30 01:24:47;;;;;;;3.83;2.60;;;;;;;;;;5015882;28;20186;-71
2023/07/30 01:27:54;;;;;;;4.77;2.50;;;;;;;;;;5003561;28;20510;-71
2023/07/30 01:31:01;;;;;;;3.77;2.60;;;;;;;;;;4992399;28;20217;-71
2023/07/30 01:34:07;;;;;;;3.30;2.57;;;;;;;;;;5003438;28;20181;-71
2023/07/30 01:37:12;;;;;;;4.87;2.53;;;;;;;;;;4991760;28;20229;-71
2023/07/30 01:40:17;;;;;;;2.67;2.17;;;;;;;;;;4992077;28;20189;-71
2023/07/30 01:43:21;;;;;;;3.00;2.70;;;;;;;;;;5003511;28;20177;-71
2023/07/30 01:46:25;;;;;;;2.57;2.10;;;;;;;;;;5003139;28;20185;-71
2023/07/30 01:49:29;;;;;;;2.67;2.00;;;;;;;;;;5015421;28;20616;-72
2023/07/30 01:52:34;;;;;;;2.60;2.40;;;;;;;;;;5002786;28;20212;-71
2023/07/30 01:55:39;;;;;;;3.43;2.40;;;;;;;;;;5002909;28;20186;-72
2023/07/30 01:58:43;;;;;;;2.77;2.43;;;;;;;;;;5002349;28;20173;-71
2023/07/30 02:01:47;;;;;;;3.23;2.40;;;;;;;;;;4991479;28;20220;-72
2023/07/30 02:04:51;;;;;;;4.67;2.27;;;;;;;;;;5002554;28;20181;-72
2023/07/30 02:07:55;;;;;;;8.20;3.47;;;;;;;;;;5002842;28;20173;-73
2023/07/30 02:10:59;;;;;;;9.20;2.70;;;;;;;;;;5002369;28;20220;-72
2023/07/30 02:14:03;;;;;;;2.93;1.67;;;;;;;;;;4980176;28;20182;-73
2023/07/30 02:17:07;;;;;;;6.27;2.33;;;;;;;;;;4991129;28;20209;-73
2023/07/30 02:20:12;;;;;;;5.00;2.10;;;;;;;;;;5002325;28;20182;-72
2023/07/30 02:23:16;;;;;;;3.17;1.70;;;;;;;;;;5014838;28;20201;-73
2023/07/30 02:26:20;;;;;;;6.50;2.10;;;;;;;;;;5002469;28;20186;-73
2023/07/30 02:29:25;;;;;;;2.33;1.77;;;;;;;;;;5002617;28;20178;-73
2023/07/30 02:32:29;;;;;;;4.03;1.40;;;;;;;;;;5002149;28;20243;-74
2023/07/30 02:35:33;;;;;;;1.93;1.57;;;;;;;;;;5001442;28;20201;-75
2023/07/30 02:38:38;;;;;;;2.37;1.40;;;;;;;;;;5001722;28;20225;-73
2023/07/30 02:41:42;;;;;;;6.30;1.40;;;;;;;;;;5001956;28;20221;-72
2023/07/30 02:44:46;;;;;;;2.40;1.30;;;;;;;;;;5001981;28;20186;-72
2023/07/30 02:47:50;;;;;;;3.03;1.40;;;;;;;;;;5002137;28;20173;-72
2023/07/30 02:50:54;;;;;;;3.73;1.40;;;;;;;;;;5013995;28;20217;-72
2023/07/30 02:54:01;;;;;;;2.37;1.17;;;;;;;;;;5013789;28;20625;-73
2023/07/30 02:57:05;;;;;;;4.80;1.23;;;;;;;;;;5001806;28;20217;-74
2023/07/30 03:00:10;;;;;;;1.97;1.00;;;;;;;;;;5013882;28;20189;-72
2023/07/30 03:03:16;;;;;;;2.83;1.07;;;;;;;;;;5001617;28;20177;-72
2023/07/30 03:06:20;;;;;;;2.20;1.13;;;;;;;;;;5001442;28;20193;-72
2023/07/30 03:09:24;;;;;;;2.70;1.03;;;;;;;;;;5013228;28;20193;-72
2023/07/30 03:12:28;;;;;;;2.37;1.40;;;;;;;;;;5001433;28;20217;-72
2023/07/30 03:15:32;;;;;;;3.70;1.50;;;;;;;;;;5001404;28;20173;-72
2023/07/30 03:18:36;;;;;;;1.43;1.33;;;;;;;;;;5001620;28;20213;-72
2023/07/30 03:21:41;;;;;;;5.90;1.70;;;;;;;;;;5001205;28;20217;-72
2023/07/30 03:24:47;;;;;;;2.70;2.30;;;;;;;;;;5001699;28;20181;-72
2023/07/30 03:27:51;;;;;;;3.83;2.10;;;;;;;;;;5001840;28;20514;-72
2023/07/30 03:30:55;;;;;;;2.40;1.53;;;;;;;;;;5013704;28;20217;-72
2023/07/30 03:33:59;;;;;;;3.57;2.00;;;;;;;;;;5001497;28;20621;-72
2023/07/30 03:37:04;;;;;;;2.40;1.97;;;;;;;;;;5000994;28;20224;-74
2023/07/30 03:40:08;;;;;;;2.13;1.93;;;;;;;;;;5001485;28;20189;-72
2023/07/30 03:43:12;;;;;;;2.67;2.03;;;;;;;;;;5001230;28;20186;-73
2023/07/30 03:46:16;;;;;;;3.60;2.00;;;;;;;;;;5001372;28;20201;-72
2023/07/30 03:49:21;;;;;;;5.73;2.23;;;;;;;;;;5001281;28;20193;-72
2023/07/30 03:52:25;;;;;;;2.40;2.20;;;;;;;;;;5001099;28;20221;-73
2023/07/30 03:55:29;;;;;;;3.10;2.10;;;;;;;;;;4990193;28;20189;-74
2023/07/30 03:58:33;;;;;;;2.53;2.20;;;;;;;;;;4989987;28;20210;-74
2023/07/30 04:01:37;;;;;;;3.00;2.17;;;;;;;;;;5001068;28;20216;-74
2023/07/30 04:04:46;;;;;;;7.33;2.00;;;;;;;;;;5013498;28;20181;-74
2023/07/30 04:07:50;;;;;;;2.83;2.00;;;;;;;;;;4989776;28;20178;-72
2023/07/30 04:10:54;;;;;;;2.80;1.87;;;;;;;;;;4989881;28;20221;-72
2023/07/30 04:13:58;;;;;;;3.63;1.90;;;;;;;;;;4989755;28;20660;-72
2023/07/30 04:17:03;;;;;;;2.67;1.90;;;;;;;;;;5013096;28;20177;-72
2023/07/30 04:20:09;;;;;;;2.70;1.77;;;;;;;;;;4989949;28;20181;-72
2023/07/30 04:23:13;;;;;;;2.70;1.87;;;;;;;;;;5016768;28;20649;-73
2023/07/30 04:26:17;;;;;;;2.10;1.90;;;;;;;;;;5004949;28;20181;-72
2023/07/30 04:29:21;;;;;;;4.37;2.07;;;;;;;;;;5004399;28;20178;-73
2023/07/30 04:32:25;;;;;;;2.93;1.80;;;;;;;;;;5004496;28;20221;-74
2023/07/30 04:35:29;;;;;;;4.23;1.80;;;;;;;;;;5004205;28;20197;-74
2023/07/30 04:38:36;;;;;;;1.87;1.50;;;;;;;;;;5004443;28;20558;-74
2023/07/30 04:41:40;;;;;;;4.30;1.83;;;;;;;;;;5004219;28;20217;-74
2023/07/30 04:44:45;;;;;;;2.27;1.70;;;;;;;;;;5004333;28;20177;-73
2023/07/30 04:47:53;;;;;;;3.03;1.70;;;;;;;;;;5004372;28;20186;-74
2023/07/30 04:50:57;;;;;;;5.30;1.57;;;;;;;;;;5004381;28;20220;-73
2023/07/30 04:54:02;;;;;;;5.37;1.93;;;;;;;;;;4992931;28;20177;-74
2023/07/30 04:57:07;;;;;;;2.20;1.90;;;;;;;;;;4992963;28;20557;-74
2023/07/30 05:00:11;;;;;;;2.03;1.57;;;;;;;;;;4992550;28;20684;-74
2023/07/30 05:03:15;;;;;;;3.27;1.97;;;;;;;;;;5003759;28;20182;-74
2023/07/30 05:06:19;;;;;;;1.53;1.40;;;;;;;;;;5003641;28;20201;-73
2023/07/30 05:09:23;;;;;;;6.07;2.03;;;;;;;;;;4992603;28;20193;-74
2023/07/30 05:12:27;;;;;;;2.67;2.17;;;;;;;;;;4981608;28;20212;-74
2023/07/30 05:15:32;;;;;;;1.90;1.67;;;;;;;;;;5015573;28;20177;-74
2023/07/30 05:18:36;;;;;;;2.40;2.20;;;;;;;;;;5004176;28;20209;-74
2023/07/30 05:21:40;;;;;;;2.37;2.13;;;;;;;;;;5003541;28;20217;-74
2023/07/30 05:24:44;;;;;;;2.53;1.93;;;;;;;;;;5015684;28;20181;-74
2023/07/30 05:27:49;;;;;;;3.73;2.43;;;;;;;;;;5015596;28;20577;-73
2023/07/30 05:30:53;;;;;;;3.13;1.87;;;;;;;;;;5015268;28;20554;-74
2023/07/30 05:33:57;;;;;;;4.50;2.60;;;;;;;;;;4991519;28;20178;-74
2023/07/30 05:37:01;;;;;;;3.07;2.57;;;;;;;;;;5015033;28;20205;-74
2023/07/30 05:40:06;;;;;;;11.17;8.10;;;;;;;;;;5015519;28;20178;-74
2023/07/30 05:43:10;;;;;;;7.20;4.30;;;;;;;;;;5003103;28;20169;-75
2023/07/30 05:46:15;;;;;;;3.43;2.73;;;;;;;;;;5003175;28;20514;-74
2023/07/30 05:49:19;;;;;;;3.40;3.10;;;;;;;;;;5015305;28;20605;-74
2023/07/30 05:52:23;;;;;;;3.07;2.77;;;;;;;;;;5002809;28;20217;-74
2023/07/30 05:55:27;;;;;;;3.17;2.70;;;;;;;;;;5014991;28;20182;-74
2023/07/30 05:58:31;;;;;;;3.23;2.57;;;;;;;;;;5002801;28;20205;-74
2023/07/30 06:01:36;;;;;;;3.17;2.80;;;;;;;;;;5015027;28;20213;-74
2023/07/30 06:04:40;;;;;;;3.70;2.47;;;;;;;;;;4991339;28;20185;-74
2023/07/30 06:07:45;;;;;;;4.20;3.13;;;;;;;;;;5014421;28;20189;-74
2023/07/30 06:10:48;;;;;;;4.43;4.03;;;;;;;;;;4991608;28;20217;-74
2023/07/30 06:13:53;;;;;;;6.43;3.43;;;;;;;;;;4991734;28;20186;-73
2023/07/30 06:16:57;;;;;;;3.90;3.10;;;;;;;;;;5014625;28;20174;-74
2023/07/30 06:20:01;;;;;;;4.70;2.20;;;;;;;;;;5014517;28;20185;-73
2023/07/30 06:23:05;;;;;;;3.07;2.77;;;;;;;;;;5014789;28;20181;-74
2023/07/30 06:26:09;;;;;;;6.23;3.33;;;;;;;;;;5002660;28;20173;-74
2023/07/30 06:29:14;;;;;;;2.57;2.33;;;;;;;;;;4991210;28;20177;-73
2023/07/30 06:32:18;;;;;;;3.00;2.63;;;;;;;;;;5014087;28;20221;-74
2023/07/30 06:35:22;;;;;;;4.73;2.50;;;;;;;;;;5014199;28;20201;-74
2023/07/30 06:38:26;;;;;;;5.27;2.50;;;;;;;;;;5014262;28;20209;-74
2023/07/30 06:41:31;;;;;;;3.60;2.73;;;;;;;;;;5014202;28;20217;-74
2023/07/30 06:44:35;;;;;;;4.00;2.50;;;;;;;;;;5013977;28;20518;-73
2023/07/30 06:47:39;;;;;;;3.27;2.57;;;;;;;;;;5014010;28;20177;-74
2023/07/30 06:50:43;;;;;;;2.90;2.60;;;;;;;;;;5001572;28;20178;-74
2023/07/30 06:53:48;;;;;;;3.10;2.80;;;;;;;;;;5014182;28;20178;-74
2023/07/30 06:56:52;;;;;;;4.77;2.80;;;;;;;;;;5013611;28;20186;-75
2023/07/30 06:59:57;;;;;;;2.97;2.67;;;;;;;;;;5013617;28;20549;-75
2023/07/30 07:03:02;;;;;;;4.17;2.43;;;;;;;;;;5001935;28;20181;-74
2023/07/30 07:06:06;;;;;;;3.27;2.70;;;;;;;;;;5014162;28;20181;-75
2023/07/30 07:09:10;;;;;;;3.23;2.73;;;;;;;;;;4991105;28;20177;-75
2023/07/30 07:12:14;;;;;;;4.43;2.63;;;;;;;;;;5001474;28;20213;-70
2023/07/30 07:15:19;;;;;;;3.37;2.10;;;;;;;;;;5013898;28;20181;-72
2023/07/30 07:18:23;;;;;;;2.47;2.27;;;;;;;;;;5001617;28;20210;-73
2023/07/30 07:21:27;;;;;;;4.33;2.30;;;;;;;;;;5001268;28;20209;-74
2023/07/30 07:24:32;;;;;;;2.70;2.20;;;;;;;;;;4990634;28;20201;-73
2023/07/30 07:27:36;;;;;;;3.00;2.40;;;;;;;;;;5001259;28;20542;-71
2023/07/30 07:30:40;;;;;;;3.03;2.10;;;;;;;;;;4989839;28;20662;-71
2023/07/30 07:33:45;;;;;;;3.53;2.27;;;;;;;;;;5013454;28;20189;-73
2023/07/30 07:36:49;;;;;;;3.10;2.47;;;;;;;;;;5013292;28;20665;-73
2023/07/30 07:39:53;;;;;;;2.70;2.07;;;;;;;;;;5001223;28;20207;-72
2023/07/30 07:42:58;;;;;;;3.80;3.23;;;;;;;;;;5013083;28;20187;-71
2023/07/30 07:46:02;;;;;;;4.60;2.60;;;;;;;;;;5013180;28;20187;-71
2023/07/30 07:49:08;;;;;;;3.43;2.23;;;;;;;;;;4990365;28;20183;-72
2023/07/30 07:52:12;;;;;;;3.70;2.20;;;;;;;;;;5001166;28;20219;-72
2023/07/30 07:55:17;;;;;;;2.93;2.57;;;;;;;;;;5013274;28;20200;-71
2023/07/30 07:58:21;;;;;;;2.30;2.10;;;;;;;;;;5017019;28;20189;-72
2023/07/30 08:01:25;;;;;;;2.23;2.03;;;;;;;;;;5016723;28;20229;-71
2023/07/30 08:04:29;;;;;;;3.67;1.97;;;;;;;;;;5016846;28;20188;-72
2023/07/30 08:07:34;;;;;;;4.53;2.00;;;;;;;;;;4993558;28;20180;-73
2023/07/30 08:10:39;;;;;;;2.10;1.80;;;;;;;;;;5004674;28;20520;-71
2023/07/30 08:13:43;;;;;;;2.17;1.77;;;;;;;;;;5017127;28;20185;-71
2023/07/30 08:16:48;;;;;;;3.93;1.90;;;;;;;;;;5016848;28;20623;-71
2023/07/30 08:19:52;;;;;;;2.10;1.90;;;;;;;;;;5016446;28;20213;-72
2023/07/30 08:22:56;;;;;;;3.93;1.90;;;;;;;;;;5016966;28;20183;-72
2023/07/30 08:26:00;;;;;;;2.63;1.80;;;;;;;;;;5016656;28;20190;-71
2023/07/30 08:29:06;;;;;;;3.00;2.50;;;;;;;;;;5016286;28;20539;-71
2023/07/30 08:32:10;;;;;;;2.93;1.93;;;;;;;;;;5016249;28;20699;-71
2023/07/30 08:35:14;;;;;;;2.40;2.03;;;;;;;;;;5016501;28;20176;-72
2023/07/30 08:38:18;;;;;;;3.43;2.00;;;;;;;;;;5016323;28;20172;-72
2023/07/30 08:41:23;;;;;;;3.42;1.80;;;;;;;;;;5004475;28;20214;-71
2023/07/30 08:44:26;;;;;;;2.63;1.67;;;;;;;;;;5016119;28;20178;-71
2023/07/30 08:47:30;;;;;;;3.45;1.60;;;;;;;;;;5016501;28;20191;-72
2023/07/30 08:50:35;;;;;;;2.40;1.73;;;;;;;;;;5004219;28;20177;-71
2023/07/30 08:53:40;;;;;;;2.38;1.63;;;;;;;;;;5004194;28;20178;-72
2023/07/30 08:56:45;;;;;;;2.53;1.98;;;;;;;;;;5016072;28;20200;-71
2023/07/30 08:59:58;;;;;;;2.47;1.70;;;;;;;;;;5015751;28;20223;-71
2023/07/30 09:03:03;;;;;;;1.60;1.43;;;;;;;;;;5015680;28;20184;-71
2023/07/30 09:06:07;;;;;;;7.15;2.13;;;;;;;;;;5015782;28;20187;-71
2023/07/30 09:09:13;;;;;;;4.60;1.73;;;;;;;;;;5014966;28;20173;-71
2023/07/30 09:12:17;;;;;;;3.25;1.58;;;;;;;;;;5003479;28;20209;-71
2023/07/30 09:15:32;;;;;;;1.75;1.65;;;;;;;;;;5003536;28;20176;-72
2023/07/30 09:18:41;;;;;;;3.65;1.55;;;;;;;;;;5003604;28;20180;-71
2023/07/30 09:21:45;;;;;;;1.77;1.65;;;;;;;;;;5015581;28;20224;-71
2023/07/30 09:24:49;;;;;;;3.15;2.75;;;;;;;;;;5003956;28;20635;-71
2023/07/30 09:27:53;;;;;;;3.55;2.70;;;;;;;;;;5015537;28;20182;-72
2023/07/30 09:31:06;;;;;;;4.80;2.10;;;;;;;;;;5015702;28;20207;-72
2023/07/30 09:34:10;;;;;;;2.38;1.83;;;;;;;;;;5015682;28;20181;-72
2023/07/30 09:37:15;;;;;;;1.80;1.50;;;;;;;;;;5014924;28;20667;-72
2023/07/30 09:40:19;;;;;;;3.45;1.33;;;;;;;;;;5015565;28;20210;-72
2023/07/30 09:43:34;;;;;;;3.05;1.70;;;;;;;;;;5003336;28;20185;-72
2023/07/30 09:46:43;;;;;;;2.95;1.60;;;;;;;;;;5014968;28;20530;-72
2023/07/30 09:49:47;;;;;;;1.60;1.50;;;;;;;;;;5015220;28;20184;-72
2023/07/30 09:52:53;;;;;;;2.42;1.42;;;;;;;;;;5014888;28;20219;-72
2023/07/30 09:55:57;;;;;;;2.03;1.63;;;;;;;;;;5002615;28;20662;-71
2023/07/30 09:59:01;;;;;;;3.70;1.55;;;;;;;;;;5014895;28;20225;-71
2023/07/30 10:02:08;;;;;;;1.90;1.65;;;;;;;;;;5002703;28;20246;-72
2023/07/30 10:05:17;;;;;;;3.92;1.63;;;;;;;;;;5014712;28;20195;-72
2023/07/30 10:08:24;;;;;;;1.70;1.42;;;;;;;;;;4991853;28;20188;-72
2023/07/30 10:11:29;;;;;;;2.35;1.60;;;;;;;;;;5014816;28;20216;-72
2023/07/30 10:14:33;;;;;;;1.77;1.30;;;;;;;;;;5014386;28;20202;-72
2023/07/30 10:17:37;;;;;;;1.70;1.27;;;;;;;;;;5002564;28;20179;-72
2023/07/30 10:20:45;;;;;;;2.05;1.50;;;;;;;;;;5002149;28;20221;-72
2023/07/30 10:24:02;;;;;;;2.20;1.52;;;;;;;;;;5014154;28;20192;-72
2023/07/30 10:27:12;;;;;;;1.55;1.42;;;;;;;;;;4991381;28;20178;-72
2023/07/30 10:30:19;;;;;;;2.22;1.70;;;;;;;;;;5014272;28;20180;-74
2023/07/30 10:33:23;;;;;;;1.58;1.30;;;;;;;;;;5014522;28;20625;-74
2023/07/30 10:36:33;;;;;;;1.70;1.58;;;;;;;;;;5002169;28;20665;-73
2023/07/30 10:39:37;;;;;;;2.45;1.42;;;;;;;;;;5014897;28;20221;-74
2023/07/30 10:42:41;;;;;;;2.65;1.63;;;;;;;;;;5014044;28;20228;-74
2023/07/30 10:45:50;;;;;;;3.97;1.60;;;;;;;;;;5014179;28;20640;-73
2023/07/30 10:48:54;;;;;;;4.28;1.00;;;;;;;;;;5014336;28;20176;-74
2023/07/30 10:51:58;;;;;;;6.10;1.60;;;;;;;;;;5014171;28;20214;-74
2023/07/30 10:55:02;;;;;;;4.40;1.33;;;;;;;;;;5014315;28;20183;-74
2023/07/30 10:58:06;;;;;;;2.72;1.30;;;;;;;;;;5014056;28;20523;-74
2023/07/30 11:01:10;;;;;;;3.57;1.13;;;;;;;;;;5013866;28;20229;-73
2023/07/30 11:04:17;;;;;;;2.00;0.97;;;;;;;;;;4991036;28;20180;-74
2023/07/30 11:07:21;;;;;;;6.93;1.10;;;;;;;;;;5013689;28;20181;-74
2023/07/30 11:10:25;;;;;;;1.70;1.10;;;;;;;;;;5001493;28;20649;-74
2023/07/30 11:13:35;;;;;;;3.97;1.00;;;;;;;;;;5013589;28;20182;-74
2023/07/30 11:16:47;;;;;;;2.67;1.20;;;;;;;;;;5013575;28;20182;-74
2023/07/30 11:19:51;;;;;;;1.83;1.30;;;;;;;;;;5013934;28;20209;-73
2023/07/30 11:22:55;;;;;;;1.40;1.10;;;;;;;;;;5013694;28;20518;-73
2023/07/30 11:26:01;;;;;;;2.27;1.10;;;;;;;;;;5013430;28;20178;-74
2023/07/30 11:29:19;;;;;;;1.63;1.00;;;;;;;;;;5001508;28;20182;-74
2023/07/30 11:32:25;;;;;;;2.70;1.30;;;;;;;;;;5000917;28;20217;-74
2023/07/30 11:35:29;;;;;;;1.40;1.30;;;;;;;;;;5001189;28;20186;-74
2023/07/30 11:38:34;;;;;;;2.87;1.30;;;;;;;;;;5001789;28;20612;-74
2023/07/30 11:41:38;;;;;;;2.37;1.50;;;;;;;;;;4979275;28;20707;-74
2023/07/30 11:44:42;;;;;;;2.37;1.20;;;;;;;;;;5001385;28;20189;-74
2023/07/30 11:47:47;;;;;;;3.27;1.43;;;;;;;;;;5013518;28;20187;-74
2023/07/30 11:50:51;;;;;;;1.47;1.27;;;;;;;;;;5000977;28;20559;-74
2023/07/30 11:53:57;;;;;;;1.30;1.20;;;;;;;;;;5013163;28;20199;-74
2023/07/30 11:57:01;;;;;;;2.80;1.40;;;;;;;;;;5001586;28;20182;-74
2023/07/30 12:00:08;;;;;;;1.47;1.30;;;;;;;;;;5001178;28;20208;-74
2023/07/30 12:03:16;;;;;;;2.53;1.70;;;;;;;;;;5013626;28;20187;-74
2023/07/30 12:06:20;;;;;;;1.67;1.47;;;;;;;;;;5001453;28;20186;-74
2023/07/30 12:09:27;;;;;;;1.70;1.50;;;;;;;;;;5001770;28;20625;-74
2023/07/30 12:12:31;;;;;;;3.03;1.20;;;;;;;;;;5013488;28;20215;-74
2023/07/30 12:15:36;;;;;;;4.47;1.30;;;;;;;;;;4989762;28;20216;-74
2023/07/30 12:18:40;;;;;;;2.40;1.37;;;;;;;;;;5013206;28;20178;-74
2023/07/30 12:21:44;;;;;;;3.57;1.50;;;;;;;;;;4989690;28;20238;-74
2023/07/30 12:24:48;;;;;;;2.70;1.53;;;;;;;;;;5001346;28;20621;-74
2023/07/30 12:27:52;;;;;;;3.30;1.30;;;;;;;;;;5013342;28;20620;-74
2023/07/30 12:30:57;;;;;;;1.33;1.13;;;;;;;;;;5012607;28;20224;-74
2023/07/30 12:34:01;;;;;;;1.52;1.20;;;;;;;;;;4989647;28;20188;-74
2023/07/30 12:37:06;;;;;;;1.85;1.30;;;;;;;;;;5012458;28;20202;-74
2023/07/30 12:40:10;;;;;;;2.40;1.30;;;;;;;;;;5000468;28;20215;-74
2023/07/30 12:43:18;;;;;;;1.20;1.10;;;;;;;;;;4992317;28;20190;-75
2023/07/30 12:46:23;;;;;;;1.85;1.30;;;;;;;;;;5016053;28;20191;-76
2023/07/30 12:49:27;;;;;;;3.08;1.20;;;;;;;;;;5016270;28;20173;-75
2023/07/30 12:52:33;;;;;;;2.03;1.50;;;;;;;;;;5004063;28;20213;-75
2023/07/30 12:55:38;;;;;;;1.98;1.23;;;;;;;;;;5015895;28;20530;-75
2023/07/30 12:58:43;;;;;;;2.10;1.30;;;;;;;;;;5016300;28;20189;-75
2023/07/30 13:01:47;;;;;;;2.05;1.02;;;;;;;;;;5015576;28;20235;-75
2023/07/30 13:04:51;;;;;;;2.17;1.30;;;;;;;;;;5015909;28;20204;-74
2023/07/30 13:07:55;;;;;;;2.83;1.40;;;;;;;;;;5015897;28;20179;-75
2023/07/30 13:10:59;;;;;;;1.07;0.93;;;;;;;;;;5003742;28;20219;-75
2023/07/30 13:14:03;;;;;;;1.70;1.30;;;;;;;;;;5015522;28;20179;-75
2023/07/30 13:17:07;;;;;;;3.23;1.43;;;;;;;;;;5003834;28;20197;-74
2023/07/30 13:20:11;;;;;;;4.90;1.30;;;;;;;;;;5015259;28;20222;-74
2023/07/30 13:23:16;;;;;;;2.17;1.40;;;;;;;;;;4992091;28;20178;-74
2023/07/30 13:26:20;;;;;;;2.97;1.33;;;;;;;;;;5015538;28;20179;-74
2023/07/30 13:29:24;;;;;;;1.57;1.40;;;;;;;;;;5015960;28;20184;-74
2023/07/30 13:32:28;;;;;;;1.40;1.20;;;;;;;;;;4992551;28;20208;-74
2023/07/30 13:35:33;;;;;;;1.67;1.30;;;;;;;;;;5015486;28;20192;-75
2023/07/30 13:38:38;;;;;;;1.27;1.17;;;;;;;;;;5015239;28;20179;-74
2023/07/30 13:41:42;;;;;;;1.20;1.10;;;;;;;;;;5003206;28;20704;-74
2023/07/30 13:44:47;;;;;;;1.42;1.33;;;;;;;;;;5015535;28;20179;-74
2023/07/30 13:47:51;;;;;;;1.33;1.17;;;;;;;;;;5003256;28;20550;-74
2023/07/30 13:50:55;;;;;;;1.20;1.05;;;;;;;;;;5003256;28;20694;-74
2023/07/30 13:54:00;;;;;;;4.85;1.35;;;;;;;;;;5002357;28;20183;-74
2023/07/30 13:57:05;;;;;;;2.72;1.40;;;;;;;;;;5014922;28;20185;-74
2023/07/30 14:00:10;;;;;;;2.28;1.50;;;;;;;;;;5014751;28;20634;-74
2023/07/30 14:03:14;;;;;;;2.90;1.35;;;;;;;;;;5014762;28;20631;-74
2023/07/30 14:06:18;;;;;;;1.27;1.10;;;;;;;;;;5014666;28;20183;-74
2023/07/30 14:09:24;;;;;;;2.45;1.33;;;;;;;;;;5014597;28;20195;-74
2023/07/30 14:12:28;;;;;;;1.52;1.35;;;;;;;;;;5015025;28;20207;-74
2023/07/30 14:15:32;;;;;;;1.40;1.25;;;;;;;;;;5014510;28;20185;-74
2023/07/30 14:18:38;;;;;;;2.50;1.45;;;;;;;;;;5014667;28;20186;-74
2023/07/30 14:21:43;;;;;;;1.48;1.30;;;;;;;;;;5014298;28;20236;-74
2023/07/30 14:24:47;;;;;;;2.08;1.05;;;;;;;;;;5002573;28;20181;-74
2023/07/30 14:27:51;;;;;;;2.92;1.50;;;;;;;;;;5014279;28;20197;-73
2023/07/30 14:30:56;;;;;;;1.90;1.40;;;;;;;;;;5014402;28;20216;-74
2023/07/30 14:34:00;;;;;;;2.78;1.35;;;;;;;;;;5015065;28;20181;-74
2023/07/30 14:37:04;;;;;;;3.60;1.42;;;;;;;;;;5013974;28;20669;-74
2023/07/30 14:40:08;;;;;;;3.10;1.20;;;;;;;;;;5001867;28;20202;-74
2023/07/30 14:43:13;;;;;;;1.92;1.40;;;;;;;;;;5013998;28;20199;-74
2023/07/30 14:46:17;;;;;;;2.97;1.50;;;;;;;;;;5013952;28;20201;-74
2023/07/30 14:49:21;;;;;;;1.30;1.20;;;;;;;;;;5014568;28;20179;-74
2023/07/30 14:52:25;;;;;;;1.75;1.50;;;;;;;;;;5013802;28;20211;-74
2023/07/30 14:55:30;;;;;;;1.95;1.63;;;;;;;;;;5014080;28;20182;-74
2023/07/30 14:58:34;;;;;;;1.58;1.30;;;;;;;;;;5001938;28;20193;-74
2023/07/30 15:01:38;;;;;;;4.90;1.83;;;;;;;;;;5001602;28;20229;-74
2023/07/30 15:04:42;;;;;;;2.28;1.45;;;;;;;;;;5001996;28;20201;-74
2023/07/30 15:07:47;;;;;;;1.42;1.25;;;;;;;;;;5013628;28;20681;-74
2023/07/30 15:10:51;;;;;;;4.10;1.63;;;;;;;;;;4990530;28;20215;-74
2023/07/30 15:13:55;;;;;;;2.08;1.45;;;;;;;;;;5014144;28;20510;-74
2023/07/30 15:17:00;;;;;;;2.90;1.60;;;;;;;;;;5014279;28;20179;-74
2023/07/30 15:20:04;;;;;;;2.13;1.70;;;;;;;;;;5013760;28;20195;-74
2023/07/30 15:23:11;;;;;;;3.25;1.40;;;;;;;;;;5014285;28;20498;-74
2023/07/30 15:26:15;;;;;;;4.55;1.63;;;;;;;;;;5001933;28;20176;-75
2023/07/30 15:29:20;;;;;;;2.85;1.50;;;;;;;;;;5013764;28;20177;-74
2023/07/30 15:32:24;;;;;;;2.30;1.50;;;;;;;;;;5013544;28;20216;-74
2023/07/30 15:35:28;;;;;;;1.60;1.48;;;;;;;;;;5013790;28;20515;-74
2023/07/30 15:38:32;;;;;;;1.75;1.40;;;;;;;;;;5013373;28;20189;-74
2023/07/30 15:41:36;;;;;;;3.88;1.90;;;;;;;;;;5001371;28;20232;-74
2023/07/30 15:44:41;;;;;;;4.03;1.58;;;;;;;;;;5013403;28;20636;-74
2023/07/30 15:47:45;;;;;;;4.38;1.65;;;;;;;;;;5013209;28;20191;-74
2023/07/30 15:50:49;;;;;;;2.55;1.70;;;;;;;;;;5013373;28;20215;-74
2023/07/30 15:53:53;;;;;;;3.40;1.98;;;;;;;;;;5013437;28;20208;-74
2023/07/30 15:56:57;;;;;;;3.38;1.70;;;;;;;;;;5013144;28;20180;-74
2023/07/30 16:00:01;;;;;;;2.70;1.60;;;;;;;;;;5001249;28;20195;-74
2023/07/30 16:03:06;;;;;;;2.85;1.48;;;;;;;;;;5001273;28;20515;-74
2023/07/30 16:06:10;;;;;;;2.38;1.60;;;;;;;;;;5013500;28;20532;-74
2023/07/30 16:09:14;;;;;;;1.60;1.50;;;;;;;;;;5013080;28;20195;-74
2023/07/30 16:12:18;;;;;;;3.50;1.92;;;;;;;;;;5000828;28;20699;-74
2023/07/30 16:15:27;;;;;;;1.83;1.57;;;;;;;;;;5013203;28;20181;-74
2023/07/30 16:18:31;;;;;;;3.57;1.63;;;;;;;;;;4993502;28;20180;-74
2023/07/30 16:21:35;;;;;;;1.90;1.63;;;;;;;;;;5016932;28;20567;-74
2023/07/30 16:24:39;;;;;;;2.77;1.70;;;;;;;;;;5016643;28;20173;-74
2023/07/30 16:27:43;;;;;;;2.67;1.60;;;;;;;;;;5016865;28;20177;-74
2023/07/30 16:30:48;;;;;;;3.80;1.43;;;;;;;;;;5016727;28;20177;-74
2023/07/30 16:33:52;;;;;;;4.90;1.83;;;;;;;;;;5016984;28;20193;-74
2023/07/30 16:36:56;;;;;;;1.90;1.67;;;;;;;;;;5004422;28;20212;-74
2023/07/30 16:40:01;;;;;;;6.97;1.90;;;;;;;;;;5016402;28;20245;-74
2023/07/30 16:43:05;;;;;;;1.97;1.77;;;;;;;;;;5016458;28;20210;-74
2023/07/30 16:46:09;;;;;;;4.30;1.80;;;;;;;;;;5016577;28;20519;-74
2023/07/30 16:49:14;;;;;;;1.90;1.50;;;;;;;;;;5004664;28;20181;-74
2023/07/30 16:52:18;;;;;;;1.73;1.50;;;;;;;;;;5004221;28;20209;-74
2023/07/30 16:55:22;;;;;;;3.40;1.97;;;;;;;;;;5004267;28;20177;-74
2023/07/30 16:58:26;;;;;;;3.57;1.90;;;;;;;;;;5016532;28;20178;-74
2023/07/30 17:01:30;;;;;;;5.27;1.77;;;;;;;;;;5004253;28;20661;-74
2023/07/30 17:04:34;;;;;;;2.53;1.63;;;;;;;;;;5015899;28;20178;-74
2023/07/30 17:07:38;;;;;;;1.80;1.60;;;;;;;;;;5016316;28;20185;-74
2023/07/30 17:10:42;;;;;;;2.33;1.80;;;;;;;;;;5003836;28;20179;-74
2023/07/30 17:13:47;;;;;;;6.57;1.77;;;;;;;;;;5016247;28;20183;-74
2023/07/30 17:16:51;;;;;;;2.20;1.50;;;;;;;;;;5015970;28;20187;-74
2023/07/30 17:19:55;;;;;;;2.53;1.50;;;;;;;;;;5015821;28;20183;-75
2023/07/30 17:23:00;;;;;;;2.63;1.70;;;;;;;;;;5015561;28;20560;-74
2023/07/30 17:26:04;;;;;;;2.33;1.67;;;;;;;;;;5003628;28;20183;-75
2023/07/30 17:29:09;;;;;;;4.23;1.93;;;;;;;;;;5002203;28;20272;-75
2023/07/30 17:32:14;;;;;;;5.37;1.80;;;;;;;;;;5003142;28;20676;-74
2023/07/30 17:35:19;;;;;;;5.43;1.63;;;;;;;;;;5003371;28;20205;-74
2023/07/30 17:38:23;;;;;;;2.70;1.70;;;;;;;;;;5003269;28;20183;-74
2023/07/30 17:41:28;;;;;;;2.10;1.50;;;;;;;;;;5015489;28;20692;-74
2023/07/30 17:44:32;;;;;;;2.57;1.60;;;;;;;;;;5015490;28;20179;-74
2023/07/30 17:47:36;;;;;;;4.43;1.57;;;;;;;;;;5014946;28;20185;-74
2023/07/30 17:50:40;;;;;;;2.53;1.53;;;;;;;;;;5014810;28;20202;-74
2023/07/30 17:53:45;;;;;;;5.10;1.70;;;;;;;;;;5015052;28;20183;-74
2023/07/30 17:56:49;;;;;;;5.60;1.93;;;;;;;;;;5002954;28;20178;-74
2023/07/30 17:59:53;;;;;;;2.37;1.57;;;;;;;;;;5014755;28;20183;-74
2023/07/30 18:02:57;;;;;;;2.87;1.80;;;;;;;;;;5014915;28;20205;-74
2023/07/30 18:06:03;;;;;;;3.10;1.50;;;;;;;;;;5002515;28;20518;-74
2023/07/30 18:09:07;;;;;;;2.97;1.67;;;;;;;;;;5002752;28;20177;-74
2023/07/30 18:12:11;;;;;;;3.83;1.60;;;;;;;;;;5002686;28;20221;-74
2023/07/30 18:15:15;;;;;;;2.27;1.30;;;;;;;;;;4991359;28;20182;-74
2023/07/30 18:18:20;;;;;;;5.20;1.30;;;;;;;;;;4991316;28;20185;-74
2023/07/30 18:21:24;;;;;;;3.10;1.53;;;;;;;;;;5002381;28;20689;-74
2023/07/30 18:24:28;;;;;;;2.33;1.30;;;;;;;;;;5014515;28;20181;-74
2023/07/30 18:27:32;;;;;;;4.37;1.77;;;;;;;;;;5014810;28;20173;-74